Time;durP1;ratioP1;P1;durP2;ratioP2;P2;SDS_P1;SDS_P2;PMS_P1;PMS_P2;Temp;Humidity;BMP_temperature;BMP_pressure;BME280_temperature;BME280_humidity;BME280_pressure;Samples;Min_cycle;Max_cycle;Signal;HPM_P1;HPM_P2
2022/07/21 05:03:46;;;;;;;24.23;7.25;;;16.80;99.90;;;;;;5054582;28;20183;-57
2022/07/21 05:06:12;;;;;;;14.73;6.93;;;17.10;99.90;;;;;;5057431;28;20070;-57
2022/07/21 05:08:38;;;;;;;19.17;7.22;;;17.20;99.90;;;;;;5057767;28;20032;-57
2022/07/21 05:11:04;;;;;;;19.15;6.20;;;17.40;99.90;;;;;;5046392;28;20053;-57
2022/07/21 05:13:30;;;;;;;23.10;6.65;;;17.50;99.90;;;;;;5042843;28;20032;-57
2022/07/21 05:15:56;;;;;;;17.30;6.50;;;17.60;99.90;;;;;;5051143;28;20475;-57
2022/07/21 05:18:22;;;;;;;19.70;6.30;;;17.70;99.90;;;;;;5037237;28;20029;-57
2022/07/21 05:20:48;;;;;;;20.30;6.85;;;17.90;99.90;;;;;;5049097;28;20072;-57
2022/07/21 05:23:14;;;;;;;14.43;6.22;;;18.00;99.90;;;;;;5050923;28;20028;-57
2022/07/21 05:25:40;;;;;;;11.00;5.78;;;18.20;99.90;;;;;;5051583;28;20060;-57
2022/07/21 05:28:06;;;;;;;25.60;7.38;;;18.20;99.90;;;;;;5048139;28;20025;-57
2022/07/21 05:30:32;;;;;;;17.20;7.15;;;18.40;99.90;;;;;;5055402;28;20422;-57
2022/07/21 05:32:58;;;;;;;24.83;7.57;;;18.50;99.60;;;;;;5056323;28;20484;-57
2022/07/21 05:35:24;;;;;;;26.65;6.88;;;18.70;98.60;;;;;;5046504;28;20017;-57
2022/07/21 05:37:50;;;;;;;25.63;6.63;;;18.80;97.60;;;;;;5048603;28;20409;-57
2022/07/21 05:40:16;;;;;;;17.65;5.75;;;18.90;97.40;;;;;;5056387;28;20053;-57
2022/07/21 05:42:42;;;;;;;41.00;9.48;;;19.10;97.20;;;;;;5045080;28;20068;-57
2022/07/21 05:45:08;;;;;;;19.77;6.05;;;19.20;96.70;;;;;;5036939;28;20064;-57
2022/07/21 05:47:34;;;;;;;16.08;5.32;;;19.30;96.20;;;;;;5036923;28;20040;-57
2022/07/21 05:50:00;;;;;;;10.25;5.40;;;19.40;95.60;;;;;;5037195;28;20026;-57
2022/07/21 05:52:26;;;;;;;18.75;6.03;;;19.50;95.10;;;;;;5036703;28;20040;-57
2022/07/21 05:54:52;;;;;;;22.95;6.15;;;19.60;94.80;;;;;;5036638;28;20036;-57
2022/07/21 05:57:18;;;;;;;18.35;6.20;;;19.80;93.50;;;;;;5039470;28;20048;-57
2022/07/21 05:59:47;;;;;;;15.40;6.03;;;19.90;93.30;;;;;;5056505;28;20040;-57
2022/07/21 06:02:14;;;;;;;22.00;5.68;;;20.00;92.70;;;;;;5054939;28;20028;-57
2022/07/21 06:04:39;;;;;;;19.10;6.22;;;20.10;90.90;;;;;;5051072;28;20043;-57
2022/07/21 06:07:06;;;;;;;22.55;6.80;;;20.30;91.40;;;;;;5056307;28;20047;-57
2022/07/21 06:09:32;;;;;;;21.50;6.95;;;20.40;91.50;;;;;;5054201;28;20029;-57
2022/07/21 06:11:58;;;;;;;13.93;6.00;;;20.60;89.80;;;;;;5052248;28;20104;-57
2022/07/21 06:14:25;;;;;;;39.72;10.73;;;20.70;88.30;;;;;;5049618;28;20522;-57
2022/07/21 06:16:51;;;;;;;37.00;8.55;;;20.90;87.20;;;;;;5045638;28;20416;-57
2022/07/21 06:19:22;;;;;;;17.42;6.10;;;21.00;84.00;;;;;;5052111;28;20035;-57
2022/07/21 06:21:48;;;;;;;23.25;6.40;;;21.10;82.60;;;;;;5053339;28;20049;-57
2022/07/21 06:24:14;;;;;;;27.27;6.35;;;21.20;81.30;;;;;;5052485;28;20040;-57
2022/07/21 06:26:40;;;;;;;23.27;7.32;;;21.40;80.90;;;;;;5049359;28;20108;-57
2022/07/21 06:29:07;;;;;;;32.35;7.22;;;21.60;79.70;;;;;;5048105;28;20112;-57
2022/07/21 06:31:34;;;;;;;29.50;6.97;;;21.80;80.20;;;;;;5046166;28;20021;-58
2022/07/21 06:34:00;;;;;;;17.30;6.32;;;21.90;78.70;;;;;;5051757;28;20064;-59
2022/07/21 06:36:25;;;;;;;26.42;6.68;;;22.10;77.70;;;;;;5047951;28;20029;-60
2022/07/21 06:38:51;;;;;;;30.33;7.32;;;22.30;76.00;;;;;;5045602;28;20029;-59
2022/07/21 06:41:17;;;;;;;22.15;5.70;;;22.50;76.50;;;;;;5024350;28;20331;-57
2022/07/21 06:43:46;;;;;;;16.40;6.55;;;22.70;74.10;;;;;;5047858;28;20029;-57
2022/07/21 06:46:12;;;;;;;15.98;6.45;;;22.80;73.30;;;;;;5055230;28;20029;-57
2022/07/21 06:48:38;;;;;;;19.35;5.88;;;23.00;72.50;;;;;;5044385;28;20021;-57
2022/07/21 06:51:04;;;;;;;13.52;5.47;;;23.20;72.80;;;;;;5051912;28;20017;-57
2022/07/21 06:53:30;;;;;;;23.75;6.00;;;23.40;71.80;;;;;;5053356;28;20482;-57
2022/07/21 06:55:56;;;;;;;20.23;6.15;;;23.60;69.40;;;;;;5043557;28;20033;-57
2022/07/21 06:58:24;;;;;;;12.73;5.70;;;23.80;68.40;;;;;;5043914;28;20051;-57
2022/07/21 07:00:51;;;;;;;14.85;5.32;;;24.10;68.90;;;;;;5052373;28;20462;-57
2022/07/21 07:03:18;;;;;;;16.80;5.80;;;24.30;66.20;;;;;;5041116;28;20067;-57
2022/07/21 07:05:46;;;;;;;23.88;6.38;;;24.50;65.60;;;;;;5052699;28;20100;-58
2022/07/21 07:08:12;;;;;;;22.42;5.72;;;24.80;65.40;;;;;;5050558;28;20031;-57
2022/07/21 07:10:42;;;;;;;16.25;5.20;;;25.10;63.60;;;;;;5055105;28;20498;-57
2022/07/21 07:13:09;;;;;;;18.92;5.82;;;25.30;61.70;;;;;;5054991;28;20043;-57
2022/07/21 07:15:35;;;;;;;19.10;4.55;;;25.60;60.20;;;;;;5054784;28;20025;-58
2022/07/21 07:18:00;;;;;;;19.50;6.30;;;25.90;58.90;;;;;;5048636;28;20768;-58
2022/07/21 07:20:26;;;;;;;19.17;5.90;;;26.10;58.50;;;;;;5051436;28;20107;-57
2022/07/21 07:22:52;;;;;;;19.77;5.60;;;26.50;57.00;;;;;;5048177;28;20029;-58
2022/07/21 07:25:24;;;;;;;21.38;5.97;;;26.70;56.80;;;;;;5044331;28;20072;-58
2022/07/21 07:27:51;;;;;;;11.35;4.63;;;27.00;56.00;;;;;;5028426;28;20037;-58
2022/07/21 07:30:18;;;;;;;12.85;4.13;;;27.30;55.20;;;;;;5048031;28;20024;-58
2022/07/21 07:32:46;;;;;;;12.05;5.38;;;27.50;54.70;;;;;;5050307;28;20021;-58
2022/07/21 07:35:13;;;;;;;9.45;4.18;;;28.00;55.40;;;;;;5047294;28;20025;-58
2022/07/21 07:37:42;;;;;;;9.20;4.35;;;28.30;51.80;;;;;;5033353;28;20033;-58
2022/07/21 07:40:11;;;;;;;11.10;3.97;;;28.30;48.00;;;;;;5051109;28;20086;-58
2022/07/21 07:42:38;;;;;;;10.00;3.95;;;28.50;46.70;;;;;;5054275;28;20470;-58
2022/07/21 07:45:06;;;;;;;15.10;5.28;;;28.80;47.10;;;;;;5054116;28;20039;-58
2022/07/21 07:47:33;;;;;;;17.27;4.75;;;29.20;48.40;;;;;;5050934;28;20017;-58
2022/07/21 07:49:59;;;;;;;15.07;4.70;;;29.10;47.60;;;;;;5048708;28;20029;-58
2022/07/21 07:52:25;;;;;;;13.43;4.22;;;29.50;45.40;;;;;;5039828;28;20032;-58
2022/07/21 07:54:51;;;;;;;13.90;5.07;;;29.50;45.20;;;;;;5033975;28;20030;-58
2022/07/21 07:57:19;;;;;;;16.67;4.72;;;29.90;46.00;;;;;;5046109;28;20100;-58
2022/07/21 07:59:45;;;;;;;12.00;4.00;;;30.30;45.50;;;;;;5049176;28;20028;-58
2022/07/21 08:02:11;;;;;;;15.05;4.15;;;30.50;43.00;;;;;;5054159;28;20355;-58
2022/07/21 08:04:37;;;;;;;8.77;3.72;;;30.70;41.10;;;;;;5054383;28;20025;-58
2022/07/21 08:07:03;;;;;;;12.13;4.43;;;31.00;41.20;;;;;;5052984;28;20033;-58
2022/07/21 08:09:29;;;;;;;11.32;3.97;;;31.20;42.20;;;;;;5053599;28;20029;-58
2022/07/21 08:11:55;;;;;;;5.57;3.72;;;31.40;42.10;;;;;;5053530;28;20071;-58
2022/07/21 08:14:21;;;;;;;6.82;3.92;;;31.40;40.20;;;;;;5053425;28;20386;-58
2022/07/21 08:16:48;;;;;;;15.15;4.70;;;31.70;39.70;;;;;;5053687;28;20033;-58
2022/07/21 08:19:14;;;;;;;15.55;4.15;;;32.00;38.90;;;;;;5053823;28;20449;-58
2022/07/21 08:21:40;;;;;;;8.20;3.25;;;32.30;38.60;;;;;;5054188;28;20025;-58
2022/07/21 08:24:06;;;;;;;10.85;3.70;;;32.40;37.00;;;;;;5054236;28;20033;-58
2022/07/21 08:26:32;;;;;;;16.58;5.40;;;32.60;37.90;;;;;;5053471;28;20029;-58
2022/07/21 08:28:58;;;;;;;9.85;4.15;;;32.90;38.20;;;;;;5052801;28;20073;-58
2022/07/21 08:31:24;;;;;;;8.80;3.47;;;33.30;37.50;;;;;;5052458;28;20032;-58
2022/07/21 08:33:52;;;;;;;36.42;8.20;;;33.60;36.40;;;;;;5051145;28;20106;-58
2022/07/21 08:36:18;;;;;;;11.98;3.80;;;33.90;36.00;;;;;;5052296;28;20056;-58
2022/07/21 08:38:45;;;;;;;12.77;3.78;;;34.10;36.60;;;;;;5055408;28;20505;-58
2022/07/21 08:41:11;;;;;;;15.23;4.57;;;34.00;34.40;;;;;;5057554;28;20064;-58
2022/07/21 08:43:37;;;;;;;11.77;4.00;;;34.20;35.10;;;;;;5054896;28;20044;-58
2022/07/21 08:46:04;;;;;;;9.50;4.30;;;34.20;33.20;;;;;;5039242;28;20026;-58
2022/07/21 08:48:31;;;;;;;10.82;4.05;;;34.00;34.80;;;;;;5038135;28;20025;-58
2022/07/21 08:50:57;;;;;;;11.02;4.22;;;34.50;34.00;;;;;;5045195;28;20028;-58
2022/07/21 08:53:24;;;;;;;22.63;5.88;;;34.40;31.80;;;;;;5057785;28;20087;-58
2022/07/21 08:55:51;;;;;;;14.68;4.93;;;34.20;33.70;;;;;;5057625;28;20474;-58
2022/07/21 08:58:18;;;;;;;14.00;4.43;;;34.70;33.10;;;;;;5051502;28;20040;-58
2022/07/21 09:00:48;;;;;;;12.25;4.00;;;35.10;30.80;;;;;;5054249;28;20120;-59
2022/07/21 09:03:23;;;;;;;16.95;4.45;;;35.00;30.80;;;;;;5056914;28;20056;-58
2022/07/21 09:06:07;;;;;;;8.65;3.25;;;35.00;32.20;;;;;;5055668;28;20543;-59
2022/07/21 09:08:40;;;;;;;5.95;3.25;;;35.60;30.80;;;;;;5047150;28;20033;-59
2022/07/21 09:11:09;;;;;;;8.48;3.75;;;35.30;30.80;;;;;;5057673;28;20433;-59
2022/07/21 09:13:35;;;;;;;16.27;5.13;;;35.40;31.10;;;;;;5052732;28;20031;-58
2022/07/21 09:16:01;;;;;;;8.82;3.10;;;35.30;30.20;;;;;;5050907;28;20043;-59
2022/07/21 09:18:27;;;;;;;5.88;2.83;;;34.40;29.60;;;;;;5055834;28;20033;-59
2022/07/21 09:20:54;;;;;;;8.95;4.20;;;34.70;30.90;;;;;;5054310;28;20032;-59
2022/07/21 09:23:22;;;;;;;14.77;3.95;;;35.20;30.50;;;;;;5056189;28;20040;-58
2022/07/21 09:25:51;;;;;;;19.42;4.43;;;35.20;29.90;;;;;;5053657;28;20078;-58
2022/07/21 09:28:29;;;;;;;11.18;4.93;;;35.80;29.90;;;;;;5055884;28;20021;-58
2022/07/21 09:30:57;;;;;;;18.02;4.53;;;36.40;29.50;;;;;;5056465;28;20028;-59
2022/07/21 09:33:32;;;;;;;14.52;4.88;;;37.10;29.40;;;;;;5055794;28;20493;-59
2022/07/21 09:35:58;;;;;;;16.80;5.20;;;37.50;28.30;;;;;;5048879;28;20025;-59
2022/07/21 09:38:26;;;;;;;8.68;3.70;;;37.10;27.70;;;;;;5052051;28;20032;-58
2022/07/21 09:40:56;;;;;;;20.13;5.40;;;37.20;28.40;;;;;;5052144;28;20036;-59
2022/07/21 09:43:33;;;;;;;15.85;4.82;;;37.40;27.70;;;;;;5048322;28;20032;-59
2022/07/21 09:46:03;;;;;;;11.50;3.83;;;37.00;27.20;;;;;;5052678;28;20017;-58
2022/07/21 09:48:36;;;;;;;23.02;4.57;;;37.00;27.90;;;;;;5036709;28;20025;-59
2022/07/21 09:51:21;;;;;;;17.67;7.95;;;37.00;27.50;;;;;;5055304;28;20036;-58
2022/07/21 09:53:49;;;;;;;19.50;4.68;;;37.20;27.90;;;;;;5055741;28;20068;-59
2022/07/21 09:56:17;;;;;;;4.55;2.72;;;36.50;27.30;;;;;;5055649;28;20039;-59
2022/07/21 09:58:47;;;;;;;11.68;3.70;;;35.90;27.60;;;;;;5056380;28;20040;-59
2022/07/21 10:01:14;;;;;;;10.00;4.03;;;36.60;28.30;;;;;;5055618;28;20134;-59
2022/07/21 10:03:42;;;;;;;6.90;2.97;;;36.80;27.60;;;;;;5047807;28;20067;-59
2022/07/21 10:06:08;;;;;;;9.13;3.55;;;37.50;27.20;;;;;;5045205;28;20048;-58
2022/07/21 10:08:37;;;;;;;10.20;3.92;;;38.00;27.90;;;;;;5036012;28;20418;-58
2022/07/21 10:11:04;;;;;;;8.48;3.13;;;38.10;25.10;;;;;;5049896;28;20442;-59
2022/07/21 10:13:30;;;;;;;7.78;3.10;;;38.20;24.50;;;;;;5039213;28;20041;-59
2022/07/21 10:15:57;;;;;;;12.88;2.78;;;37.90;24.80;;;;;;5038141;28;20077;-59
2022/07/21 10:18:28;;;;;;;11.52;3.13;;;38.20;25.90;;;;;;5035861;28;20483;-59
2022/07/21 10:21:18;;;;;;;5.82;3.13;;;38.90;25.10;;;;;;5043438;28;20036;-59
2022/07/21 10:23:45;;;;;;;5.68;2.95;;;38.80;24.10;;;;;;5038350;28;20467;-59
2022/07/21 10:26:11;;;;;;;8.82;2.65;;;38.80;24.30;;;;;;5044940;28;20089;-59
2022/07/21 10:28:37;;;;;;;20.45;4.15;;;39.20;25.00;;;;;;5035694;28;20033;-59
2022/07/21 10:31:21;;;;;;;10.18;3.00;;;39.60;25.40;;;;;;5044914;28;20063;-59
2022/07/21 10:33:48;;;;;;;18.02;3.72;;;40.00;24.30;;;;;;5046221;28;20041;-59
2022/07/21 10:36:26;;;;;;;9.45;3.53;;;39.70;24.80;;;;;;5049382;28;20035;-59
2022/07/21 10:39:23;;;;;;;3.33;2.65;;;37.20;25.00;;;;;;5048367;28;20022;-59
2022/07/21 10:41:54;;;;;;;5.57;3.05;;;37.00;25.80;;;;;;5031163;28;20044;-59
2022/07/21 10:44:30;;;;;;;9.65;2.33;;;37.30;25.90;;;;;;5046950;28;20566;-59
2022/07/21 10:47:05;;;;;;;16.17;4.80;;;38.20;25.70;;;;;;5048024;28;20106;-59
2022/07/21 10:49:55;;;;;;;5.93;2.70;;;38.20;24.40;;;;;;5040764;28;20471;-59
2022/07/21 10:52:38;;;;;;;17.30;4.28;;;38.60;24.00;;;;;;5037577;28;20052;-59
2022/07/21 10:55:11;;;;;;;14.15;3.33;;;38.00;24.60;;;;;;5046896;28;20060;-59
2022/07/21 10:57:39;;;;;;;10.52;3.10;;;37.20;24.60;;;;;;5035983;28;20123;-59
2022/07/21 11:00:23;;;;;;;35.47;5.68;;;38.10;25.60;;;;;;5035292;28;20403;-59
2022/07/21 11:02:56;;;;;;;4.60;2.53;;;38.40;24.60;;;;;;5035224;28;20084;-59
2022/07/21 11:05:24;;;;;;;14.00;3.83;;;38.80;25.00;;;;;;5035390;28;20462;-59
2022/07/21 11:08:13;;;;;;;21.55;5.88;;;39.40;24.40;;;;;;5035348;28;20025;-59
2022/07/21 11:10:43;;;;;;;12.95;3.28;;;39.90;24.80;;;;;;5035453;28;20033;-59
2022/07/21 11:13:13;;;;;;;16.38;4.47;;;39.50;22.90;;;;;;5035356;28;20101;-59
2022/07/21 11:16:00;;;;;;;42.72;6.78;;;38.40;24.00;;;;;;5035118;28;20403;-59
2022/07/21 11:18:32;;;;;;;6.15;2.83;;;39.30;24.30;;;;;;5048466;28;20025;-59
2022/07/21 11:21:03;;;;;;;6.43;2.88;;;40.00;24.00;;;;;;5055089;28;20033;-59
2022/07/21 11:23:42;;;;;;;15.27;5.80;;;40.10;22.80;;;;;;5054951;28;20037;-59
2022/07/21 11:26:10;;;;;;;15.13;4.20;;;40.30;23.50;;;;;;5055170;28;20039;-59
2022/07/21 11:28:36;;;;;;;8.07;3.58;;;40.50;23.10;;;;;;5054900;28;20028;-59
2022/07/21 11:31:11;;;;;;;12.32;3.28;;;40.50;22.30;;;;;;5049650;28;20033;-59
2022/07/21 11:33:42;;;;;;;12.30;3.55;;;40.50;21.80;;;;;;5039985;28;20034;-58
2022/07/21 11:36:08;;;;;;;15.70;3.30;;;40.30;22.60;;;;;;5051927;28;20098;-59
2022/07/21 11:38:35;;;;;;;5.90;2.83;;;40.50;22.30;;;;;;5042794;28;20426;-59
2022/07/21 11:41:17;;;;;;;6.30;2.40;;;40.80;22.60;;;;;;5054684;28;20104;-59
2022/07/21 11:43:45;;;;;;;4.28;2.47;;;41.10;22.20;;;;;;5054643;28;20458;-59
2022/07/21 11:46:12;;;;;;;11.70;3.30;;;41.40;21.40;;;;;;5043361;28;20029;-59
2022/07/21 11:48:38;;;;;;;5.13;2.83;;;41.30;20.90;;;;;;5045190;28;20536;-59
2022/07/21 11:51:06;;;;;;;5.03;2.70;;;40.30;21.80;;;;;;5055291;28;20029;-59
2022/07/21 11:53:32;;;;;;;10.30;4.68;;;40.10;22.40;;;;;;5051241;28;20330;-59
2022/07/21 11:55:58;;;;;;;12.70;3.30;;;39.50;21.30;;;;;;5034236;28;20025;-59
2022/07/21 11:58:25;;;;;;;9.07;4.05;;;38.60;21.90;;;;;;5045653;28;20080;-59
2022/07/21 12:01:05;;;;;;;2.92;2.10;;;39.50;22.60;;;;;;5054537;28;20029;-59
2022/07/21 12:03:32;;;;;;;7.47;3.08;;;40.20;22.70;;;;;;5054025;28;20056;-59
2022/07/21 12:05:59;;;;;;;12.27;3.63;;;40.50;22.20;;;;;;5041501;28;20037;-59
2022/07/21 12:08:26;;;;;;;3.95;2.85;;;39.50;21.20;;;;;;5043531;28;20021;-59
2022/07/21 12:11:06;;;;;;;6.85;2.78;;;38.10;23.30;;;;;;5045118;28;20111;-59
2022/07/21 12:13:52;;;;;;;13.38;4.03;;;39.10;24.40;;;;;;5041678;28;20033;-59
2022/07/21 12:16:18;;;;;;;10.50;5.03;;;40.10;23.00;;;;;;5052625;28;20123;-58
2022/07/21 12:18:44;;;;;;;6.28;2.30;;;39.90;21.50;;;;;;5048890;28;20306;-59
2022/07/21 12:21:10;;;;;;;9.48;3.10;;;40.30;22.40;;;;;;5051345;28;20031;-59
2022/07/21 12:23:37;;;;;;;14.95;4.13;;;40.50;21.30;;;;;;5054535;28;20037;-58
2022/07/21 12:26:03;;;;;;;17.35;3.75;;;40.20;21.80;;;;;;5054725;28;20052;-59
2022/07/21 12:28:56;;;;;;;6.65;2.55;;;38.90;21.70;;;;;;5035629;28;20029;-59
2022/07/21 12:31:23;;;;;;;8.48;2.55;;;39.80;22.90;;;;;;5042493;28;20049;-59
2022/07/21 12:33:51;;;;;;;8.65;3.10;;;39.70;22.40;;;;;;5048361;28;20043;-59
2022/07/21 12:36:20;;;;;;;11.05;3.33;;;39.70;21.70;;;;;;5044845;28;20534;-59
2022/07/21 12:38:48;;;;;;;4.45;2.60;;;40.30;22.30;;;;;;5039579;28;20029;-59
2022/07/21 12:41:17;;;;;;;14.77;4.07;;;40.60;21.90;;;;;;5042591;28;20049;-59
2022/07/21 12:43:52;;;;;;;12.88;4.53;;;40.50;21.10;;;;;;5048347;28;20504;-59
2022/07/21 12:46:19;;;;;;;10.73;3.08;;;41.00;22.00;;;;;;5049749;28;20367;-59
2022/07/21 12:48:46;;;;;;;3.50;2.42;;;40.50;20.40;;;;;;5047781;28;20079;-59
2022/07/21 12:51:11;;;;;;;9.98;3.25;;;40.70;20.90;;;;;;5043512;28;20468;-59
2022/07/21 12:53:49;;;;;;;7.25;2.53;;;40.40;21.00;;;;;;5046846;28;20093;-59
2022/07/21 12:56:21;;;;;;;4.75;2.63;;;39.70;22.50;;;;;;5040581;28;20029;-59
2022/07/21 12:58:49;;;;;;;7.97;2.38;;;40.20;21.60;;;;;;5051144;28;20032;-59
2022/07/21 13:01:20;;;;;;;27.50;4.80;;;40.30;21.20;;;;;;5045603;28;20386;-59
2022/07/21 13:03:47;;;;;;;3.63;2.17;;;38.80;21.20;;;;;;5047938;28;20037;-59
2022/07/21 13:06:17;;;;;;;15.43;4.57;;;38.80;22.70;;;;;;5047177;28;20056;-59
2022/07/21 13:08:46;;;;;;;9.45;2.70;;;39.80;22.30;;;;;;5045994;28;20017;-59
2022/07/21 13:11:18;;;;;;;7.60;2.60;;;39.50;21.60;;;;;;5045697;28;20026;-59
2022/07/21 13:13:45;;;;;;;9.00;3.28;;;39.50;21.60;;;;;;5044046;28;20032;-59
2022/07/21 13:16:12;;;;;;;8.68;2.90;;;39.70;21.50;;;;;;5050923;28;20028;-59
2022/07/21 13:18:38;;;;;;;7.85;2.70;;;38.60;22.20;;;;;;5050929;28;20102;-59
2022/07/21 13:21:04;;;;;;;7.15;2.42;;;38.00;22.50;;;;;;5052979;28;20025;-59
2022/07/21 13:23:31;;;;;;;9.35;3.47;;;37.50;22.90;;;;;;5047366;28;20032;-59
2022/07/21 13:25:57;;;;;;;16.63;3.97;;;37.50;23.40;;;;;;5055930;28;20363;-59
2022/07/21 13:28:22;;;;;;;21.00;3.88;;;38.40;23.90;;;;;;5055208;28;20078;-59
2022/07/21 13:30:48;;;;;;;16.95;4.35;;;39.00;23.20;;;;;;5056760;28;20090;-59
2022/07/21 13:33:15;;;;;;;6.00;2.58;;;39.20;22.20;;;;;;5050059;28;20024;-59
2022/07/21 13:35:41;;;;;;;4.82;2.83;;;39.10;22.40;;;;;;5037109;28;20022;-59
2022/07/21 13:38:07;;;;;;;8.88;2.83;;;39.00;22.20;;;;;;5036950;28;20080;-59
2022/07/21 13:40:33;;;;;;;8.63;3.00;;;39.10;22.70;;;;;;5037033;28;20026;-59
2022/07/21 13:42:59;;;;;;;9.48;3.00;;;39.30;22.90;;;;;;5036762;28;20364;-59
2022/07/21 13:45:25;;;;;;;9.93;4.55;;;38.80;22.30;;;;;;5036973;28;20033;-59
2022/07/21 13:47:51;;;;;;;10.80;2.75;;;38.40;22.70;;;;;;5037058;28;20040;-59
2022/07/21 13:50:17;;;;;;;9.25;2.58;;;37.70;22.80;;;;;;5036842;28;20033;-59
2022/07/21 13:52:43;;;;;;;10.52;3.40;;;38.00;22.70;;;;;;5037138;28;20025;-59
2022/07/21 13:55:09;;;;;;;33.63;6.45;;;37.20;23.10;;;;;;5036898;28;20033;-59
2022/07/21 13:57:36;;;;;;;6.28;2.70;;;37.70;23.00;;;;;;5036767;28;20044;-58
2022/07/21 14:00:08;;;;;;;9.90;3.00;;;37.20;23.20;;;;;;5036709;28;20403;-58
2022/07/21 14:02:34;;;;;;;14.60;3.58;;;37.30;23.50;;;;;;5036601;28;20071;-59
2022/07/21 14:05:00;;;;;;;6.20;3.22;;;37.70;23.50;;;;;;5036543;28;20486;-59
2022/07/21 14:07:26;;;;;;;5.22;2.85;;;37.90;24.20;;;;;;5036605;28;20045;-59
2022/07/21 14:09:52;;;;;;;10.75;2.72;;;37.70;23.90;;;;;;5036690;28;20075;-59
2022/07/21 14:12:19;;;;;;;9.32;3.28;;;37.60;23.30;;;;;;5036629;28;20033;-59
2022/07/21 14:14:48;;;;;;;7.35;3.65;;;37.70;23.50;;;;;;5036521;28;20061;-59
2022/07/21 14:17:16;;;;;;;11.77;3.45;;;37.40;23.10;;;;;;5036380;28;20589;-59
2022/07/21 14:19:47;;;;;;;15.68;4.55;;;37.60;24.00;;;;;;5036354;28;20044;-58
2022/07/21 14:22:14;;;;;;;10.45;3.75;;;37.40;23.30;;;;;;5036315;28;20026;-59
2022/07/21 14:27:24;;;;;;;25.10;5.15;;;37.60;23.20;;;;;;5036377;28;20052;-59
2022/07/21 14:29:51;;;;;;;9.18;3.22;;;37.50;24.00;;;;;;5036109;28;20053;-59
2022/07/21 14:32:21;;;;;;;19.08;6.07;;;36.90;23.80;;;;;;5036104;28;20029;-58
2022/07/21 14:34:51;;;;;;;6.15;2.35;;;37.00;24.10;;;;;;5036213;28;20365;-59
2022/07/21 14:37:18;;;;;;;;;;;36.90;24.20;;;;;;5035928;28;20041;-59
2022/07/21 14:39:48;;;;;;;11.35;2.92;;;37.00;24.20;;;;;;5035893;28;19905;-59
2022/07/21 14:42:15;;;;;;;7.32;3.90;;;37.00;24.00;;;;;;5035884;28;20029;-58
2022/07/21 14:44:42;;;;;;;12.93;3.28;;;37.00;24.60;;;;;;5035758;28;20429;-59
2022/07/21 14:47:08;;;;;;;9.95;3.10;;;36.90;24.70;;;;;;5036028;28;20079;-59
2022/07/21 14:49:34;;;;;;;25.90;4.10;;;36.80;24.20;;;;;;5035801;28;20021;-59
2022/07/21 14:52:00;;;;;;;14.35;3.25;;;36.80;24.60;;;;;;5035979;28;20036;-59
2022/07/21 14:54:26;;;;;;;9.93;2.72;;;36.60;25.00;;;;;;5035706;28;20037;-59
2022/07/21 14:56:52;;;;;;;8.85;3.50;;;36.30;23.90;;;;;;5036307;28;20037;-58
2022/07/21 14:59:18;;;;;;;12.77;3.50;;;36.00;24.70;;;;;;5055372;28;20108;-59
2022/07/21 15:01:44;;;;;;;5.55;2.35;;;36.00;25.90;;;;;;5055493;28;20090;-59
2022/07/21 15:04:10;;;;;;;11.57;2.70;;;36.10;25.60;;;;;;5055594;28;20051;-59
2022/07/21 15:06:36;;;;;;;17.35;4.00;;;36.10;25.00;;;;;;5055315;28;20064;-59
2022/07/21 15:09:02;;;;;;;4.78;2.25;;;36.10;25.00;;;;;;5055390;28;20069;-59
2022/07/21 15:11:28;;;;;;;8.35;2.70;;;35.90;25.40;;;;;;5055613;28;20052;-59
2022/07/21 15:13:53;;;;;;;7.65;2.85;;;35.80;26.10;;;;;;5055238;28;20032;-58
2022/07/21 15:16:20;;;;;;;8.25;3.13;;;35.80;26.00;;;;;;5055240;28;20033;-58
2022/07/21 15:18:46;;;;;;;6.30;2.63;;;35.60;26.00;;;;;;5055080;28;20040;-58
2022/07/21 15:21:12;;;;;;;14.23;4.50;;;35.60;26.90;;;;;;5055259;28;20029;-58
2022/07/21 15:23:38;;;;;;;8.73;3.00;;;35.50;26.80;;;;;;5054936;28;20040;-58
2022/07/21 15:26:04;;;;;;;4.53;2.20;;;35.50;26.50;;;;;;5055184;28;20021;-58
2022/07/21 15:28:30;;;;;;;12.82;3.80;;;35.30;26.60;;;;;;5054862;28;20398;-58
2022/07/21 15:30:56;;;;;;;6.85;3.38;;;35.20;26.40;;;;;;5055036;28;20463;-58
2022/07/21 15:33:22;;;;;;;8.65;3.03;;;35.20;27.20;;;;;;5054969;28;20036;-59
2022/07/21 15:35:51;;;;;;;8.38;3.08;;;35.20;26.70;;;;;;5054913;28;20036;-58
2022/07/21 15:38:17;;;;;;;6.80;2.88;;;35.10;27.20;;;;;;5054932;28;20801;-58
2022/07/21 15:40:43;;;;;;;4.28;2.35;;;35.10;26.70;;;;;;5054817;28;20025;-58
2022/07/21 15:43:09;;;;;;;4.40;3.28;;;35.10;28.50;;;;;;5054514;28;20068;-58
2022/07/21 15:45:35;;;;;;;19.80;4.05;;;35.00;27.30;;;;;;5054810;28;20028;-58
2022/07/21 15:48:01;;;;;;;12.98;3.40;;;34.90;27.00;;;;;;5053896;28;20316;-58
2022/07/21 15:50:27;;;;;;;5.47;2.97;;;34.80;27.40;;;;;;5054682;28;20036;-58
2022/07/21 15:52:53;;;;;;;4.63;2.42;;;34.70;28.30;;;;;;5054920;28;20076;-58
2022/07/21 15:55:20;;;;;;;3.58;2.10;;;34.60;27.90;;;;;;5054453;28;20383;-58
2022/07/21 15:57:46;;;;;;;6.47;2.15;;;34.50;27.80;;;;;;5054393;28;20033;-58
2022/07/21 16:00:32;;;;;;;5.45;2.22;;;34.50;27.00;;;;;;5054714;28;20051;-58
2022/07/21 16:03:00;;;;;;;2.78;2.17;;;34.40;26.80;;;;;;5054270;28;20049;-58
2022/07/21 16:05:27;;;;;;;3.70;2.35;;;34.20;28.20;;;;;;5054411;28;20036;-58
2022/07/21 16:07:54;;;;;;;9.68;3.05;;;34.20;27.60;;;;;;5054501;28;20036;-58
2022/07/21 16:10:22;;;;;;;11.75;2.88;;;34.10;29.10;;;;;;5054803;28;20066;-58
2022/07/21 16:12:52;;;;;;;3.70;2.60;;;34.00;28.20;;;;;;5054577;28;20029;-58
2022/07/21 16:15:19;;;;;;;6.25;2.40;;;34.00;28.30;;;;;;5054366;28;20027;-58
2022/07/21 16:17:46;;;;;;;6.80;3.10;;;33.90;28.50;;;;;;5054193;28;20040;-58
2022/07/21 16:20:13;;;;;;;7.13;2.03;;;33.80;29.50;;;;;;5054261;28;20458;-58
2022/07/21 16:22:44;;;;;;;7.18;2.13;;;33.70;29.60;;;;;;5054161;28;20039;-58
2022/07/21 16:25:15;;;;;;;3.70;2.33;;;33.60;29.60;;;;;;5054329;28;20116;-58
2022/07/21 16:27:41;;;;;;;6.18;2.22;;;33.50;29.20;;;;;;5054485;28;20027;-58
2022/07/21 16:30:08;;;;;;;4.40;2.35;;;33.40;30.90;;;;;;5053957;28;20262;-58
2022/07/21 16:32:34;;;;;;;5.28;2.00;;;33.20;31.20;;;;;;5054150;28;20383;-58
2022/07/21 16:35:00;;;;;;;4.50;2.30;;;33.10;32.10;;;;;;5054342;28;20045;-58
2022/07/21 16:37:25;;;;;;;4.07;2.33;;;33.00;30.80;;;;;;5054156;28;20030;-58
2022/07/21 16:39:51;;;;;;;6.43;2.60;;;32.90;33.00;;;;;;5054088;28;20059;-58
2022/07/21 16:42:17;;;;;;;7.15;2.85;;;32.80;32.00;;;;;;5054133;28;20063;-58
2022/07/21 16:44:43;;;;;;;6.13;2.75;;;32.60;33.40;;;;;;5053929;28;20382;-58
2022/07/21 16:47:09;;;;;;;3.72;2.17;;;32.50;32.40;;;;;;5036348;28;20517;-58
2022/07/21 16:49:35;;;;;;;4.07;2.15;;;32.30;32.70;;;;;;5053983;28;20025;-58
2022/07/21 16:52:02;;;;;;;9.40;2.95;;;32.20;33.40;;;;;;5053812;28;20028;-58
2022/07/21 16:54:28;;;;;;;6.13;2.47;;;32.10;34.30;;;;;;5053964;28;20032;-58
2022/07/21 16:56:54;;;;;;;4.70;2.33;;;31.90;34.30;;;;;;5054008;28;20112;-58
2022/07/21 16:59:20;;;;;;;7.65;2.65;;;31.70;35.80;;;;;;5055320;28;20525;-58
2022/07/21 17:01:46;;;;;;;3.83;2.15;;;31.60;34.90;;;;;;5057797;28;20036;-58
2022/07/21 17:04:12;;;;;;;5.47;2.42;;;31.50;34.10;;;;;;5057629;28;20131;-58
2022/07/21 17:06:38;;;;;;;5.63;2.40;;;31.40;35.40;;;;;;5057724;28;20082;-58
2022/07/21 17:09:05;;;;;;;4.68;2.45;;;31.20;36.10;;;;;;5057725;28;20068;-58
2022/07/21 17:11:31;;;;;;;6.53;2.10;;;31.10;35.50;;;;;;5057680;28;20037;-58
2022/07/21 17:13:58;;;;;;;6.15;2.33;;;30.90;36.80;;;;;;5057724;28;20025;-58
2022/07/21 17:16:24;;;;;;;6.68;2.70;;;30.80;35.50;;;;;;5057680;28;20475;-58
2022/07/21 17:18:50;;;;;;;7.22;2.83;;;30.70;36.60;;;;;;5057306;28;20029;-58
2022/07/21 17:21:16;;;;;;;11.45;3.00;;;30.60;36.50;;;;;;5057489;28;20039;-58
2022/07/21 17:23:42;;;;;;;13.98;4.05;;;30.50;37.00;;;;;;5057467;28;20052;-58
2022/07/21 17:26:08;;;;;;;11.18;2.92;;;30.40;37.50;;;;;;5057526;28;20033;-58
2022/07/21 17:28:34;;;;;;;5.75;2.72;;;30.30;37.80;;;;;;5057373;28;20056;-58
2022/07/21 17:31:00;;;;;;;3.63;2.30;;;30.20;38.40;;;;;;5057382;28;20025;-58
2022/07/21 17:33:26;;;;;;;9.32;7.22;;;30.00;39.20;;;;;;5057369;28;20104;-58
2022/07/21 17:35:52;;;;;;;23.63;11.98;;;29.90;39.70;;;;;;5057281;28;20033;-58
2022/07/21 17:38:19;;;;;;;19.60;8.23;;;29.80;39.60;;;;;;5057132;28;20045;-58
2022/07/21 17:40:47;;;;;;;9.05;3.80;;;29.60;41.30;;;;;;5057195;28;20029;-58
2022/07/21 17:43:13;;;;;;;6.82;3.05;;;29.50;40.80;;;;;;5056964;28;20028;-58
2022/07/21 17:45:39;;;;;;;9.98;2.80;;;29.40;41.50;;;;;;5057123;28;20032;-58
2022/07/21 17:48:05;;;;;;;9.30;3.13;;;29.20;43.00;;;;;;5056898;28;20378;-58
2022/07/21 17:50:31;;;;;;;5.75;2.47;;;29.10;43.60;;;;;;5057058;28;20035;-58